Time;durP1;ratioP1;P1;durP2;ratioP2;P2;SDS_P1;SDS_P2;PMS_P1;PMS_P2;Temp;Humidity;BMP_temperature;BMP_pressure;BME280_temperature;BME280_humidity;BME280_pressure;Samples;Min_cycle;Max_cycle;Signal;HPM_P1;HPM_P2
2021/07/12 00:00:30;;;;;;;17.73;15.65;;;18.60;99.90;;;20.24;84.25;100394.50;4995303;28;20084;-89
2021/07/12 00:02:58;;;;;;;16.40;13.65;;;18.70;99.90;;;20.28;84.31;100395.28;4995317;28;20061;-90
2021/07/12 00:05:26;;;;;;;17.27;14.32;;;18.60;99.90;;;20.26;84.09;100387.19;4978722;28;20037;-91
2021/07/12 00:07:53;;;;;;;15.00;13.35;;;18.70;99.90;;;20.22;84.10;100385.63;4995193;28;20031;-89
2021/07/12 00:10:24;;;;;;;16.80;14.32;;;18.60;99.90;;;20.23;83.98;100390.84;4995517;28;20041;-90
2021/07/12 00:12:52;;;;;;;14.43;12.82;;;18.60;99.90;;;20.20;83.88;100377.53;4979153;28;20034;-89
2021/07/12 00:15:22;;;;;;;13.88;12.23;;;18.60;99.90;;;20.14;84.04;100382.09;4979416;28;20457;-89
2021/07/12 00:17:50;;;;;;;14.38;12.85;;;18.50;99.90;;;20.10;84.68;100380.56;4995480;28;20414;-89
2021/07/12 00:20:18;;;;;;;17.98;14.85;;;18.40;99.90;;;20.02;84.85;100381.91;4979049;28;20065;-90
2021/07/12 00:22:46;;;;;;;17.73;15.45;;;18.40;99.90;;;19.91;85.12;100374.34;4992215;28;20117;-89
2021/07/12 00:25:14;;;;;;;16.13;12.57;;;18.40;99.90;;;19.85;85.24;100378.09;4976484;28;20038;-91
2021/07/12 00:27:41;;;;;;;13.02;11.70;;;18.30;99.90;;;19.78;85.59;100372.53;4976282;28;20478;-87
2021/07/12 00:30:18;;;;;;;20.00;15.85;;;18.20;99.90;;;19.72;86.11;100374.25;4975576;28;20443;-88
2021/07/12 00:32:45;;;;;;;16.08;14.07;;;18.20;99.90;;;19.71;85.68;100367.81;4975790;28;20347;-87
2021/07/12 00:35:13;;;;;;;15.43;13.25;;;18.10;99.90;;;19.72;85.77;100362.91;4975838;28;20031;-91
2021/07/12 00:37:40;;;;;;;15.77;13.57;;;18.10;99.90;;;19.73;85.83;100358.84;4975211;28;20057;-89
2021/07/12 00:40:12;;;;;;;15.70;12.70;;;18.20;99.90;;;19.74;85.69;100357.63;4975600;28;20031;-87
2021/07/12 00:42:39;;;;;;;16.33;13.85;;;18.10;99.90;;;19.70;86.04;100354.84;4959752;28;20034;-89
2021/07/12 00:45:19;;;;;;;16.77;14.98;;;18.10;99.90;;;19.66;86.80;100361.78;4976147;28;20031;-87
2021/07/12 00:47:48;;;;;;;14.32;12.45;;;18.00;99.90;;;19.60;87.47;100360.66;4975809;28;20419;-88
2021/07/12 00:50:17;;;;;;;15.80;13.40;;;18.00;99.90;;;19.56;87.96;100363.53;4975626;28;20049;-89
2021/07/12 00:52:44;;;;;;;15.23;13.45;;;18.00;99.90;;;19.48;88.57;100370.56;4959990;28;20336;-88
2021/07/12 00:55:42;;;;;;;14.65;13.15;;;17.90;99.90;;;19.40;88.99;100367.00;4975881;28;20118;-89
2021/07/12 00:58:17;;;;;;;15.77;14.07;;;17.80;99.90;;;19.33;89.28;100361.41;4975114;28;20035;-90
2021/07/12 01:00:49;;;;;;;16.52;13.77;;;17.70;99.90;;;19.28;89.50;100358.25;4976035;28;20058;-88
2021/07/12 01:03:17;;;;;;;16.90;14.52;;;17.70;99.90;;;19.18;89.84;100343.00;4978362;28;20089;-89
2021/07/12 01:05:45;;;;;;;16.75;14.38;;;17.60;99.90;;;19.11;90.32;100342.28;4981270;28;20035;-88
2021/07/12 01:08:12;;;;;;;17.55;15.30;;;17.60;99.90;;;19.05;90.63;100341.13;4983488;28;20023;-89
2021/07/12 01:10:41;;;;;;;16.27;14.57;;;17.50;99.90;;;18.93;91.06;100342.50;4985755;28;20047;-89
2021/07/12 01:13:32;;;;;;;18.33;16.38;;;17.40;99.90;;;18.84;91.59;100343.00;4987441;28;20027;-87
2021/07/12 01:16:06;;;;;;;18.10;14.88;;;17.30;99.90;;;18.77;92.09;100339.44;4984422;28;20072;-89
2021/07/12 01:18:48;;;;;;;16.48;14.68;;;17.20;99.90;;;18.60;92.84;100334.78;4993257;28;20042;-87
2021/07/12 01:22:22;;;;;;;17.67;15.35;;;17.20;99.90;;;18.58;93.54;100334.41;4994025;28;20027;-88
2021/07/12 01:25:27;;;;;;;18.80;16.13;;;17.00;99.90;;;18.48;93.49;100326.81;4994256;28;20090;-90
2021/07/12 01:28:26;;;;;;;20.55;16.92;;;16.90;99.90;;;18.38;94.14;100337.81;4993780;28;20166;-89
2021/07/12 01:31:39;;;;;;;20.60;16.65;;;16.90;99.90;;;18.42;95.05;100338.59;4995395;28;20034;-88
2021/07/12 01:34:14;;;;;;;19.48;16.05;;;16.90;99.90;;;18.49;94.82;100334.88;4976339;28;20050;-91
2021/07/12 01:37:16;;;;;;;17.75;15.77;;;17.00;99.90;;;18.50;94.77;100341.34;4992385;28;20062;-90
2021/07/12 01:40:06;;;;;;;19.58;15.68;;;17.00;99.90;;;18.50;94.75;100341.34;4991889;28;20030;-87
2021/07/12 01:43:02;;;;;;;21.90;18.35;;;17.00;99.90;;;18.49;95.32;100349.03;4990622;28;20117;-91
2021/07/12 01:45:49;;;;;;;22.80;18.40;;;17.00;99.90;;;18.50;95.36;100332.88;4982828;28;20054;-88
2021/07/12 01:48:37;;;;;;;20.30;16.70;;;17.00;99.90;;;18.56;95.30;100322.72;4980402;28;20062;-89
2021/07/12 01:51:11;;;;;;;20.20;17.02;;;17.10;99.90;;;18.59;95.13;100327.53;4980014;28;20491;-89
2021/07/12 01:54:06;;;;;;;19.85;17.50;;;17.00;99.90;;;18.55;95.19;100323.94;4980161;28;20042;-88
2021/07/12 01:56:54;;;;;;;21.02;16.98;;;17.00;99.90;;;18.49;95.47;100334.88;4978134;28;20394;-90
2021/07/12 01:59:58;;;;;;;19.95;16.80;;;16.90;99.90;;;18.43;95.63;100331.69;4978926;28;20027;-89
2021/07/12 02:02:32;;;;;;;19.23;17.15;;;16.90;99.90;;;18.37;95.95;100326.91;4979516;28;20049;-87
2021/07/12 02:05:08;;;;;;;17.90;15.77;;;16.80;99.90;;;18.29;96.01;100322.56;4979176;28;20053;-88
2021/07/12 02:07:37;;;;;;;22.48;18.25;;;16.90;99.90;;;18.25;96.20;100319.75;4978634;28;20023;-88
2021/07/12 02:10:06;;;;;;;21.67;17.10;;;16.70;99.90;;;18.21;97.00;100324.63;4979618;28;20046;-88
2021/07/12 02:12:35;;;;;;;22.25;17.20;;;16.70;99.90;;;18.19;97.41;100326.28;4983608;28;20038;-90
2021/07/12 02:15:08;;;;;;;19.88;16.70;;;16.70;99.90;;;18.22;97.38;100314.13;4983410;28;20023;-89
2021/07/12 02:17:38;;;;;;;20.00;15.85;;;16.70;99.90;;;18.28;97.14;100323.75;4988404;28;20375;-88
2021/07/12 02:20:10;;;;;;;17.35;14.98;;;16.70;99.90;;;18.28;97.12;100310.44;4992484;28;20057;-87
2021/07/12 02:22:39;;;;;;;20.77;15.57;;;16.70;99.90;;;18.30;97.10;100310.81;4984440;28;20062;-90
2021/07/12 02:25:11;;;;;;;18.10;15.07;;;16.70;99.90;;;18.29;96.92;100302.75;4983123;28;20027;-90
2021/07/12 02:27:38;;;;;;;18.20;15.05;;;16.70;99.90;;;18.26;96.81;100303.59;4981555;28;20054;-90
2021/07/12 02:30:07;;;;;;;18.30;14.60;;;16.70;99.90;;;18.25;96.79;100301.97;4981129;28;20414;-89
2021/07/12 02:32:37;;;;;;;19.48;15.15;;;16.70;99.90;;;18.15;97.00;100297.22;4982516;28;20038;-89
2021/07/12 02:35:09;;;;;;;18.08;15.68;;;16.60;99.90;;;18.12;97.15;100300.91;4966083;28;20479;-89
2021/07/12 02:37:41;;;;;;;18.08;15.77;;;16.60;99.90;;;18.03;97.15;100298.56;4983247;28;20054;-91
2021/07/12 02:40:15;;;;;;;16.50;14.07;;;16.50;99.90;;;17.91;97.48;100290.59;4983584;28;20027;-89
2021/07/12 02:42:48;;;;;;;17.73;15.00;;;16.40;99.90;;;17.84;97.63;100287.81;4965744;28;20097;-91
2021/07/12 02:45:17;;;;;;;16.40;14.65;;;16.30;99.90;;;17.74;97.50;100278.22;4967062;28;20078;-91
2021/07/12 02:47:44;;;;;;;20.17;16.10;;;16.30;99.90;;;17.67;97.52;100274.63;4984363;28;20027;-89
2021/07/12 02:50:15;;;;;;;19.45;16.08;;;16.20;99.90;;;17.65;98.01;100277.09;4966821;28;20038;-90
2021/07/12 02:53:17;;;;;;;20.25;17.27;;;16.10;99.90;;;17.63;98.12;100283.13;4982432;28;20027;-91
2021/07/12 02:55:44;;;;;;;19.15;16.13;;;16.10;99.90;;;17.58;98.36;100286.41;4981145;28;20031;-91
2021/07/12 02:58:10;;;;;;;20.70;15.73;;;16.10;99.90;;;17.52;98.53;100284.41;4980637;28;20031;-89
2021/07/12 03:00:37;;;;;;;21.25;15.85;;;16.10;99.90;;;17.47;98.79;100288.47;4980949;28;20034;-87
2021/07/12 03:03:04;;;;;;;19.17;15.65;;;16.00;99.90;;;17.46;99.05;100288.88;4980525;28;20084;-89
2021/07/12 03:05:29;;;;;;;17.92;15.82;;;15.90;99.90;;;17.39;98.89;100282.06;4980032;28;20082;-90
2021/07/12 03:08:12;;;;;;;17.23;15.43;;;15.90;99.90;;;17.32;99.30;100284.94;4980293;28;20027;-89
2021/07/12 03:10:54;;;;;;;17.52;15.55;;;15.90;99.90;;;17.26;99.61;100278.13;4980815;28;20039;-90
2021/07/12 03:13:38;;;;;;;18.27;15.82;;;15.80;99.90;;;17.19;99.54;100269.69;4981188;28;20027;-88
2021/07/12 03:16:06;;;;;;;21.67;17.50;;;15.70;99.90;;;17.18;99.71;100268.06;4980630;28;20054;-90
2021/07/12 03:18:47;;;;;;;18.85;15.82;;;15.70;99.90;;;17.17;99.82;100268.50;4980277;28;20038;-89
2021/07/12 03:21:14;;;;;;;18.60;15.63;;;15.70;99.90;;;17.15;99.83;100276.56;4964988;28;20035;-90
2021/07/12 03:23:44;;;;;;;19.08;15.77;;;15.70;99.90;;;17.10;99.80;100263.72;4981381;28;20039;-89
2021/07/12 03:26:15;;;;;;;20.77;14.45;;;15.60;99.90;;;17.06;99.88;100265.72;4978818;28;20033;-89
2021/07/12 03:28:43;;;;;;;19.02;15.85;;;15.50;99.90;;;17.01;99.87;100263.34;4977965;28;20086;-91
2021/07/12 03:31:11;;;;;;;16.08;14.23;;;15.50;99.90;;;16.97;99.93;100258.94;4978325;28;20436;-91
2021/07/12 03:33:40;;;;;;;17.65;15.75;;;15.50;99.90;;;16.96;99.97;100263.75;4977473;28;20370;-90
2021/07/12 03:36:08;;;;;;;18.10;15.27;;;15.50;99.90;;;16.96;100.00;100260.13;4977349;28;20026;-87
2021/07/12 03:38:36;;;;;;;19.40;16.63;;;15.50;99.90;;;16.93;100.00;100264.59;4979195;28;20426;-89
2021/07/12 03:41:05;;;;;;;18.55;16.30;;;15.40;99.90;;;16.98;100.00;100269.00;4978415;28;20073;-89
2021/07/12 03:43:31;;;;;;;20.90;17.35;;;15.50;99.90;;;17.06;100.00;100273.38;4976941;28;20043;-91
2021/07/12 03:46:01;;;;;;;19.85;16.08;;;15.60;99.90;;;17.09;100.00;100266.94;4977154;28;20030;-90
2021/07/12 03:48:46;;;;;;;20.50;16.70;;;15.50;99.90;;;17.11;100.00;100270.97;4978235;28;20042;-93
2021/07/12 03:51:22;;;;;;;23.08;19.10;;;15.60;99.90;;;17.13;100.00;100271.34;4986804;28;20034;-89
2021/07/12 03:53:49;;;;;;;19.58;16.05;;;15.60;99.90;;;17.17;100.00;100274.16;4986410;28;20038;-88
2021/07/12 03:56:16;;;;;;;19.75;16.52;;;15.60;99.90;;;17.18;100.00;100267.28;4980206;28;20061;-89
2021/07/12 03:58:43;;;;;;;21.83;16.92;;;15.60;99.90;;;17.21;100.00;100252.38;4993883;28;20050;-88
2021/07/12 04:01:10;;;;;;;22.05;16.80;;;15.60;99.90;;;17.26;100.00;100254.75;4992016;28;20035;-90
2021/07/12 04:03:36;;;;;;;22.35;17.52;;;15.70;99.90;;;17.29;100.00;100242.63;4981311;28;20030;-90
2021/07/12 04:06:03;;;;;;;23.65;16.95;;;15.70;99.90;;;17.34;100.00;100248.63;4982242;28;20039;-91
2021/07/12 04:08:29;;;;;;;19.45;16.25;;;15.80;99.90;;;17.39;100.00;100251.03;4982614;28;20082;-87
2021/07/12 04:10:55;;;;;;;20.88;16.13;;;15.90;99.90;;;17.47;100.00;100250.94;4986697;28;20027;-86
2021/07/12 04:13:22;;;;;;;21.10;16.92;;;15.90;99.90;;;17.52;99.94;100254.16;5003356;28;20050;-90
2021/07/12 04:15:48;;;;;;;20.33;16.33;;;15.90;99.90;;;17.59;99.74;100242.03;4988182;28;20081;-87
2021/07/12 04:18:14;;;;;;;19.13;16.13;;;16.00;99.90;;;17.70;99.75;100251.22;4984686;28;20019;-91
2021/07/12 04:20:41;;;;;;;19.58;16.52;;;16.00;99.90;;;17.76;99.32;100252.38;4982223;28;20042;-88
2021/07/12 04:23:10;;;;;;;17.35;15.45;;;16.10;99.90;;;17.80;99.27;100253.94;4981951;28;20046;-89
2021/07/12 04:25:36;;;;;;;20.10;15.95;;;16.20;99.90;;;17.85;99.07;100249.91;4984832;28;20117;-87
2021/07/12 04:28:05;;;;;;;19.00;16.00;;;16.20;99.90;;;17.86;98.87;100248.66;4986419;28;20022;-88
2021/07/12 04:30:31;;;;;;;19.98;16.40;;;16.30;99.90;;;17.92;98.31;100249.81;4986448;28;20477;-89
2021/07/12 04:32:58;;;;;;;22.02;18.35;;;16.30;99.90;;;18.01;97.93;100252.16;4981806;28;20027;-89
2021/07/12 04:35:24;;;;;;;22.45;18.02;;;16.40;99.90;;;18.11;97.24;100254.88;4982364;28;20022;-92
2021/07/12 04:37:50;;;;;;;19.20;15.57;;;16.40;99.90;;;18.16;96.70;100243.13;4963161;28;20349;-90
2021/07/12 04:40:16;;;;;;;15.05;13.45;;;16.50;99.90;;;18.19;96.30;100236.63;4994604;28;20113;-90
2021/07/12 04:42:43;;;;;;;16.70;12.68;;;16.60;99.90;;;18.24;96.32;100247.47;4998201;28;20033;-87
2021/07/12 04:45:10;;;;;;;16.23;12.52;;;16.60;99.90;;;18.24;96.25;100239.00;4999274;28;20027;-91
2021/07/12 04:47:36;;;;;;;17.73;12.32;;;16.60;99.90;;;18.17;96.53;100244.72;4990398;28;20030;-90
2021/07/12 04:50:06;;;;;;;18.98;15.45;;;16.50;99.90;;;18.10;96.14;100236.31;4997177;28;20081;-89
2021/07/12 04:52:33;;;;;;;19.40;15.63;;;16.60;99.90;;;18.11;96.18;100237.13;4995032;28;20030;-87
2021/07/12 04:55:07;;;;;;;24.13;16.80;;;16.50;99.90;;;18.16;95.91;100236.66;4981534;28;20053;-90
2021/07/12 04:57:35;;;;;;;23.85;16.92;;;16.60;99.90;;;18.28;95.38;100238.94;4979999;28;20037;-91
2021/07/12 05:00:02;;;;;;;20.02;15.60;;;16.70;99.90;;;18.39;95.01;100242.47;4980787;28;20041;-90
2021/07/12 05:02:28;;;;;;;16.67;14.55;;;16.80;99.90;;;18.52;94.53;100237.13;4998897;28;20030;-88
2021/07/12 05:04:55;;;;;;;17.75;13.70;;;16.80;99.90;;;18.59;93.99;100231.38;4981910;28;20104;-85
2021/07/12 05:07:21;;;;;;;18.13;14.48;;;16.90;99.90;;;18.73;93.16;100234.81;4981236;28;20050;-86
2021/07/12 05:09:46;;;;;;;18.33;13.82;;;17.00;99.90;;;18.85;92.92;100244.75;4997712;28;20054;-90
2021/07/12 05:12:14;;;;;;;17.65;13.38;;;17.10;99.90;;;18.95;92.71;100244.63;4979528;28;20030;-87
2021/07/12 05:14:43;;;;;;;19.10;13.85;;;17.30;99.90;;;19.12;91.98;100239.16;4996483;28;20022;-88
2021/07/12 05:17:14;;;;;;;15.35;13.30;;;17.40;99.90;;;19.29;91.77;100243.75;4996317;28;20026;-90
2021/07/12 05:19:40;;;;;;;16.85;12.73;;;17.60;99.90;;;19.41;90.49;100248.88;4987962;28;20045;-88
2021/07/12 05:22:07;;;;;;;18.13;13.90;;;17.60;99.90;;;19.54;89.80;100244.22;4986327;28;20030;-90
2021/07/12 05:24:38;;;;;;;19.23;13.05;;;17.80;99.90;;;19.60;89.00;100236.81;5001101;28;20046;-87
2021/07/12 05:27:05;;;;;;;18.27;14.80;;;17.80;99.90;;;19.68;88.54;100229.03;4988849;28;20034;-90
2021/07/12 05:29:30;;;;;;;19.00;14.95;;;17.90;99.90;;;19.78;87.38;100223.16;4988208;28;20061;-88
2021/07/12 05:31:56;;;;;;;15.18;12.48;;;18.00;99.90;;;19.93;87.39;100221.69;5010902;28;20031;-89
2021/07/12 05:34:22;;;;;;;14.63;12.88;;;18.20;99.90;;;20.00;86.87;100223.59;5006263;28;20080;-88
2021/07/12 05:36:48;;;;;;;13.85;12.35;;;18.30;99.90;;;20.15;86.77;100221.28;5000364;28;20034;-90
2021/07/12 05:39:15;;;;;;;16.15;13.13;;;18.40;99.90;;;20.27;86.46;100226.34;5002398;28;20026;-90
2021/07/12 05:41:41;;;;;;;16.40;12.57;;;18.50;99.90;;;20.41;86.12;100229.72;5004020;28;20117;-91
2021/07/12 05:44:08;;;;;;;19.02;14.00;;;18.60;99.90;;;20.41;85.40;100220.41;5001039;28;20030;-91
2021/07/12 05:46:34;;;;;;;17.33;13.05;;;18.70;99.90;;;20.48;85.27;100217.44;5004626;28;20030;-89
2021/07/12 05:49:00;;;;;;;15.10;13.50;;;18.70;99.90;;;20.54;84.09;100206.38;4982433;28;20036;-89
2021/07/12 05:51:26;;;;;;;15.75;13.57;;;18.80;99.90;;;20.66;84.58;100209.34;4984349;28;20038;-90
2021/07/12 05:53:51;;;;;;;17.55;13.32;;;18.90;99.90;;;20.75;83.61;100203.88;4982881;28;20090;-88
2021/07/12 05:56:17;;;;;;;16.48;13.85;;;19.00;99.90;;;20.95;82.85;100201.84;4982722;28;20080;-90
2021/07/12 05:58:43;;;;;;;16.52;12.90;;;19.20;99.90;;;21.11;81.66;100208.81;4999533;28;20058;-91
2021/07/12 06:01:09;;;;;;;15.73;12.60;;;19.30;99.90;;;21.32;80.55;100211.94;4983571;28;20034;-90
2021/07/12 06:03:35;;;;;;;14.82;12.38;;;19.50;99.90;;;21.54;79.59;100224.41;4984186;28;20125;-90
2021/07/12 06:06:01;;;;;;;14.00;12.43;;;19.60;99.90;;;21.72;78.43;100226.81;4982941;28;20026;-90
2021/07/12 06:08:27;;;;;;;14.40;12.10;;;19.80;99.90;;;21.83;77.31;100218.78;4998884;28;20118;-90
2021/07/12 06:10:53;;;;;;;14.32;12.63;;;19.90;99.90;;;21.92;76.41;100219.03;4998509;28;20039;-90
2021/07/12 06:13:19;;;;;;;13.98;12.32;;;20.00;99.90;;;22.06;75.70;100210.09;5000101;28;20026;-88
2021/07/12 06:15:46;;;;;;;15.52;12.48;;;20.10;99.90;;;22.21;74.61;100221.91;5000041;28;20045;-89
2021/07/12 06:18:17;;;;;;;15.27;11.57;;;20.20;99.90;;;22.37;74.33;100226.75;4998437;28;20463;-88
2021/07/12 06:20:44;;;;;;;15.35;12.13;;;20.40;99.90;;;22.45;73.36;100230.97;4998579;28;20083;-89
2021/07/12 06:23:10;;;;;;;13.30;11.32;;;20.50;99.90;;;22.75;71.83;100221.22;4998133;28;20065;-92
2021/07/12 06:25:38;;;;;;;13.55;10.98;;;20.70;99.90;;;22.96;71.09;100227.06;4996817;28;20125;-88
2021/07/12 06:28:05;;;;;;;12.05;10.85;;;20.90;99.90;;;23.07;69.75;100223.91;4996958;28;20483;-91
2021/07/12 06:30:32;;;;;;;13.95;11.25;;;21.00;99.90;;;23.14;68.28;100208.66;4982170;28;20118;-90
2021/07/12 06:32:57;;;;;;;12.82;10.75;;;21.10;99.90;;;23.29;67.79;100219.13;4997419;28;20522;-89
2021/07/12 06:35:26;;;;;;;12.25;10.95;;;21.30;99.90;;;23.67;66.08;100212.63;5017570;28;20101;-87
2021/07/12 06:37:52;;;;;;;15.07;11.10;;;21.60;99.90;;;23.80;66.19;100210.56;5003245;28;20046;-88
2021/07/12 06:40:21;;;;;;;13.63;11.07;;;21.90;99.90;;;24.14;64.66;100213.50;4993004;28;20034;-88
2021/07/12 06:42:49;;;;;;;11.95;9.38;;;22.10;99.90;;;24.37;64.51;100210.19;4982193;28;20038;-90
2021/07/12 06:45:15;;;;;;;12.45;10.02;;;22.30;99.90;;;24.54;64.89;100211.59;4981668;28;20034;-88
2021/07/12 06:47:43;;;;;;;15.00;10.77;;;22.40;99.90;;;24.45;64.18;100207.88;4981553;28;20031;-90
2021/07/12 06:50:10;;;;;;;10.85;9.75;;;22.40;99.90;;;24.52;65.00;100205.56;5000543;28;20029;-90
2021/07/12 06:52:38;;;;;;;12.35;9.23;;;22.40;99.90;;;24.40;65.51;100214.19;4982026;28;20034;-89
2021/07/12 06:55:05;;;;;;;11.20;10.07;;;22.40;99.90;;;24.63;63.97;100208.00;4981807;28;20030;-92
2021/07/12 06:57:31;;;;;;;13.35;9.25;;;22.50;99.90;;;24.75;63.24;100214.94;4996840;28;20037;-91
2021/07/12 06:59:57;;;;;;;10.63;8.57;;;22.60;99.90;;;25.05;62.91;100215.00;4996466;28;20031;-89
2021/07/12 07:02:27;;;;;;;9.30;8.18;;;22.90;99.90;;;25.20;60.77;100223.00;4982194;28;20037;-89
2021/07/12 07:04:53;;;;;;;9.00;8.10;;;23.00;99.90;;;25.08;62.02;100221.81;4997677;28;20022;-89
2021/07/12 07:07:20;;;;;;;9.27;7.63;;;23.00;99.90;;;25.21;60.99;100207.44;4981447;28;20037;-90
2021/07/12 07:09:48;;;;;;;8.35;7.45;;;23.10;99.90;;;25.40;60.76;100206.25;4998190;28;20034;-88
2021/07/12 07:12:14;;;;;;;9.88;7.40;;;23.20;99.90;;;25.57;60.40;100217.00;4998089;28;20038;-89
2021/07/12 07:14:39;;;;;;;8.02;6.85;;;23.30;99.90;;;25.37;60.70;100219.44;4997902;28;20121;-90
2021/07/12 07:17:08;;;;;;;8.55;7.63;;;23.30;99.90;;;25.43;59.98;100214.69;4983091;28;20028;-89
2021/07/12 07:19:40;;;;;;;8.57;6.82;;;23.40;99.90;;;25.62;59.39;100212.75;4983118;28;20154;-88
2021/07/12 07:22:07;;;;;;;8.00;6.50;;;23.60;99.90;;;25.95;57.53;100212.97;4982718;28;20030;-90
2021/07/12 07:24:33;;;;;;;8.50;6.20;;;23.80;99.90;;;25.98;57.74;100217.72;4981039;28;20144;-91
2021/07/12 07:27:01;;;;;;;7.07;5.45;;;23.80;99.90;;;25.97;57.42;100216.97;4996320;28;20066;-88
2021/07/12 07:29:27;;;;;;;6.60;5.35;;;23.80;99.90;;;26.06;57.65;100210.44;4996799;28;20574;-88
2021/07/12 07:31:58;;;;;;;7.18;5.90;;;23.90;99.90;;;26.26;55.89;100195.72;4987071;28;20053;-90
2021/07/12 07:34:24;;;;;;;7.75;5.85;;;24.10;99.90;;;26.79;54.88;100193.28;5010116;28;20474;-91
2021/07/12 07:36:50;;;;;;;6.78;6.07;;;24.40;99.90;;;27.03;54.20;100199.94;4998299;28;20057;-91
2021/07/12 07:39:16;;;;;;;7.00;5.30;;;24.60;99.90;;;27.33;53.30;100193.13;4998400;28;20058;-89
2021/07/12 07:41:43;;;;;;;7.55;5.70;;;24.90;99.90;;;27.72;52.36;100182.63;5000418;28;20045;-90
2021/07/12 07:44:13;;;;;;;6.63;4.72;;;25.30;99.90;;;27.99;51.52;100190.25;4982074;28;20083;-91
2021/07/12 07:46:47;;;;;;;6.57;5.43;;;25.60;99.90;;;27.88;51.93;100178.53;4999060;28;20030;-89
2021/07/12 07:49:13;;;;;;;5.55;4.53;;;25.70;99.90;;;28.06;50.36;100187.06;4982466;28;20022;-88
2021/07/12 07:51:43;;;;;;;5.57;5.07;;;25.80;99.90;;;28.38;49.05;100183.28;4983283;28;20030;-89
2021/07/12 07:54:14;;;;;;;7.47;4.35;;;25.90;99.90;;;28.60;48.39;100174.31;5006732;28;20027;-89
2021/07/12 07:56:47;;;;;;;5.78;4.38;;;26.10;99.90;;;28.61;48.10;100170.94;4983184;28;20390;-91
2021/07/12 07:59:14;;;;;;;5.32;4.10;;;26.30;99.90;;;28.85;46.85;100175.84;5006125;28;20162;-87
2021/07/12 08:01:44;;;;;;;4.25;3.85;;;26.30;99.90;;;28.89;47.83;100182.19;4991582;28;20106;-88
2021/07/12 08:04:11;;;;;;;4.72;3.70;;;26.50;99.90;;;28.90;46.32;100173.06;5005087;28;20074;-89
2021/07/12 08:06:37;;;;;;;5.25;4.07;;;26.50;99.90;;;29.02;46.06;100166.22;4989698;28;20026;-89
2021/07/12 08:09:05;;;;;;;5.60;3.75;;;26.50;99.90;;;29.17;44.68;100169.88;4978130;28;20191;-90
2021/07/12 08:11:34;;;;;;;6.00;4.13;;;26.80;97.10;;;29.79;43.58;100183.16;4997935;28;20101;-89
2021/07/12 08:14:04;;;;;;;4.78;3.80;;;27.20;94.70;;;29.69;42.13;100173.06;4997482;28;20052;-90
2021/07/12 08:16:32;;;;;;;4.32;3.55;;;27.30;90.10;;;30.25;42.06;100174.59;4981746;28;20371;-88
2021/07/12 08:19:27;;;;;;;4.65;3.22;;;27.60;90.60;;;30.45;41.51;100171.75;4996797;28;20133;-90
2021/07/12 08:21:53;;;;;;;3.33;3.03;;;27.80;87.20;;;30.87;39.67;100170.34;4998325;28;20133;-87
2021/07/12 08:24:21;;;;;;;4.55;3.00;;;28.10;80.60;;;31.39;39.51;100160.31;4979140;28;20489;-90
2021/07/12 08:26:51;;;;;;;4.20;3.80;;;28.50;81.50;;;30.69;40.04;100157.06;4979765;28;20034;-91
2021/07/12 08:29:18;;;;;;;5.03;3.78;;;28.40;75.90;;;30.44;40.33;100155.75;4980761;28;20065;-90
2021/07/12 08:32:40;;;;;;;4.07;3.67;;;28.20;77.90;;;30.80;41.12;100160.84;4981244;28;20045;-90
2021/07/12 08:35:16;;;;;;;4.40;3.50;;;28.20;80.70;;;30.67;42.00;100145.22;4958284;29;20126;-91
2021/07/12 08:37:52;;;;;;;5.25;3.85;;;27.90;84.60;;;30.36;40.83;100133.63;4930200;28;20034;-90
2021/07/12 08:40:23;;;;;;;4.07;3.65;;;27.80;79.60;;;30.19;41.32;100145.75;4997386;28;20030;-89
2021/07/12 08:42:56;;;;;;;4.40;3.55;;;27.80;81.40;;;30.36;40.96;100136.50;4997652;28;20050;-89
2021/07/12 08:45:28;;;;;;;5.53;4.57;;;27.80;80.90;;;29.95;41.28;100148.06;4981675;28;20050;-89
2021/07/12 08:47:56;;;;;;;4.20;3.80;;;27.40;80.10;;;29.48;42.79;100146.31;4977611;28;20037;-89
2021/07/12 08:50:30;;;;;;;4.10;3.65;;;27.20;83.90;;;29.26;42.24;100138.16;4977718;28;20105;-88
2021/07/12 08:52:58;;;;;;;5.82;3.83;;;27.00;81.80;;;29.34;42.71;100132.78;4989145;28;20113;-90
2021/07/12 08:55:27;;;;;;;5.35;4.20;;;26.90;86.70;;;29.32;44.02;100118.09;4983130;28;20031;-88
2021/07/12 08:58:19;;;;;;;4.53;3.88;;;26.80;90.40;;;29.44;41.69;100119.06;4987157;28;20089;-87
2021/07/12 09:01:03;;;;;;;6.15;3.55;;;26.90;82.50;;;29.77;42.03;100113.75;5017333;28;20030;-88
2021/07/12 09:03:39;;;;;;;3.70;3.40;;;27.20;85.40;;;30.12;42.01;100110.81;4981005;28;20081;-87
2021/07/12 09:06:23;;;;;;;3.83;3.45;;;27.60;85.50;;;30.58;40.41;100117.38;4980427;28;20022;-89
2021/07/12 09:09:09;;;;;;;3.55;3.22;;;27.70;79.00;;;30.58;39.93;100122.34;4997822;28;20018;-89
2021/07/12 09:11:40;;;;;;;4.75;3.15;;;28.10;76.30;;;30.87;38.90;100104.81;4997171;28;20028;-89
2021/07/12 09:14:13;;;;;;;6.18;3.80;;;28.40;74.10;;;30.52;39.56;100107.91;5004411;28;20358;-89
2021/07/12 09:16:55;;;;;;;4.10;3.70;;;28.10;73.50;;;29.62;41.56;100102.31;4995943;28;20174;-88
2021/07/12 09:19:35;;;;;;;4.30;3.90;;;27.40;77.50;;;29.78;41.31;100103.84;4979799;28;20037;-89
2021/07/12 09:22:15;;;;;;;5.65;3.22;;;27.40;78.20;;;30.56;39.11;100099.03;4981275;28;20390;-91
2021/07/12 09:24:55;;;;;;;3.97;3.15;;;27.90;76.40;;;31.27;38.82;100092.31;4983057;28;20041;-88
2021/07/12 09:27:27;;;;;;;3.25;2.97;;;28.50;74.20;;;31.77;36.29;100087.63;4997576;28;20388;-88
2021/07/12 09:30:06;;;;;;;3.58;2.95;;;29.00;68.70;;;31.56;36.11;100089.09;4980187;28;20054;-89
2021/07/12 09:32:48;;;;;;;3.92;2.70;;;29.20;66.60;;;31.51;36.40;100083.28;5001207;28;20080;-89
2021/07/12 09:36:27;;;;;;;3.72;3.13;;;29.10;66.60;;;31.48;38.02;100075.63;4988810;28;20030;-87
2021/07/12 09:44:06;;;;;;;;;;;;;;;;;;;;;
2021/07/12 09:46:59;;;;;;;4.72;3.38;;;29.30;67.80;;;31.05;37.40;100069.84;4974999;28;20103;-91
2021/07/12 09:50:14;;;;;;;;;;;;;;;;;;;;;
2021/07/12 09:53:43;;;;;;;;;;;;;;;;;;;;;
2021/07/12 09:56:26;;;;;;;4.47;2.70;;;28.30;69.80;;;30.48;38.90;100071.94;4991519;28;20054;-87
2021/07/12 09:58:56;;;;;;;5.72;2.80;;;28.40;68.70;;;31.18;38.06;100061.53;4988111;28;20298;-90
2021/07/12 10:01:25;;;;;;;2.90;2.53;;;29.00;68.80;;;31.50;36.48;100065.16;5001232;28;20026;-89
2021/07/12 10:03:53;;;;;;;2.63;2.20;;;29.20;65.60;;;31.09;36.42;100055.19;4998447;28;20027;-89
2021/07/12 10:06:23;;;;;;;2.50;2.10;;;29.20;63.50;;;31.42;36.39;100052.53;4980671;28;20030;-89
2021/07/12 10:08:52;;;;;;;2.42;1.88;;;29.20;64.00;;;32.04;35.39;100047.84;4981553;28;20038;-89
2021/07/12 10:11:18;;;;;;;5.10;2.63;;;29.40;63.00;;;31.25;36.83;100035.09;4984313;28;20656;-89
2021/07/12 10:13:59;;;;;;;2.72;2.53;;;29.40;63.20;;;32.01;36.33;100026.56;4988749;28;20030;-90
2021/07/12 10:16:28;;;;;;;3.38;2.70;;;29.60;64.30;;;32.28;36.15;100016.38;4985171;28;20030;-87
2021/07/12 10:18:55;;;;;;;2.83;2.25;;;29.70;63.60;;;32.62;35.35;100015.13;4998967;28;20037;-90
2021/07/12 10:21:22;;;;;;;3.13;2.35;;;29.90;63.90;;;33.37;34.76;100022.63;4999977;28;20031;-87
2021/07/12 10:23:57;;;;;;;2.53;2.33;;;30.40;62.80;;;33.39;33.04;100031.56;4981687;28;20041;-89
2021/07/12 10:27:00;;;;;;;2.72;2.25;;;30.50;60.00;;;33.04;32.80;100019.03;4980894;28;20027;-87
2021/07/12 11:02:48;;;;;;;3.78;2.35;;;30.00;60.70;;;33.04;33.96;99996.63;5059886;28;20492;-87
2021/07/12 11:05:53;;;;;;;4.35;2.67;;;30.30;59.50;;;33.21;33.30;99996.63;5044690;28;20456;-89
2021/07/12 11:09:02;;;;;;;2.50;2.13;;;30.80;57.90;;;32.75;33.48;100000.13;5037258;28;20037;-85
2021/07/12 11:13:00;;;;;;;;;;;;;;;;;;;;;